PWSweather.com
Personal Weather Stations
Station Observations
WA6MVG
Nw Lake Tapps, Auburn, WA 98092

Nw Lake TappsAuburn, WA 98092

Lat: 47.250153, Lon: -122.195483

Elevation: 500

Station Type: Oregon Scientific WMR100a

http://www.wa6mvg.com/wxindex.php

Latest ConditionsUpdated 4:00:00 PM PDT Wednesday, Oct 16, 2019
Currently Today's Max Today's Min Today's Average
Temperature 55.9°F13.3°C 55.9°F13.3°C 45.0°F7.2°C 50.7°F10.4°C
Dew Point 53.9°F12.2°C 53.9°F12.2°C 42.6°F5.9°C 47.8°F8.8°C
Winds Calm Calm Calm -Calm - - Calm Calm
Wind Gusts -- 1.2 mph1.9 kmh - -
Humidity 93% 93% 75% 90%
Pressure 29.68 in1005.1 mb 29.91 in1012.9 mb 29.68 in1005.1 mb -
Precipitation - 0.13 in3.3 mm - -
Hour Temp Dew Point Humidity Winds Wind Gusts Pressure Precip Precip Rate Daily Precip Total
04:00 PM 55.9°F13.3°C 53.9°F12.2°C 93% Calm Calm -- 29.68 in1005.1 mb - 0.00 in0.0 mm 0.13 in3.3 mm
03:45 PM 55.2°F12.9°C 53.2°F11.8°C 93% Calm Calm -- 29.68 in1005.1 mb - 0.00 in0.0 mm 0.13 in3.3 mm
03:30 PM 55.0°F12.8°C 53.0°F11.7°C 93% Calm Calm -- 29.69 in1005.4 mb - 0.00 in0.0 mm 0.13 in3.3 mm
03:15 PM 54.9°F12.7°C 52.9°F11.6°C 93% Calm Calm -- 29.70 in1005.8 mb - 0.00 in0.0 mm 0.13 in3.3 mm
03:00 PM 54.8°F12.7°C 52.5°F11.4°C 92% Calm Calm -- 29.71 in1006.1 mb - 0.00 in0.0 mm 0.13 in3.3 mm
02:45 PM 54.9°F12.7°C 52.9°F11.6°C 93% Calm Calm -- 29.73 in1006.8 mb - 0.00 in0.0 mm 0.13 in3.3 mm
02:30 PM 54.7°F12.6°C 52.7°F11.5°C 93% Calm Calm -- 29.73 in1006.8 mb - 0.00 in0.0 mm 0.13 in3.3 mm
02:15 PM 54.5°F12.5°C 52.6°F11.4°C 93% Calm Calm -- 29.73 in1006.8 mb - 0.00 in0.0 mm 0.13 in3.3 mm
02:00 PM 54.5°F12.5°C 52.5°F11.4°C 93% Calm Calm -- 29.74 in1007.1 mb - 0.00 in0.0 mm 0.13 in3.3 mm
01:45 PM 54.5°F12.5°C 52.5°F11.4°C 93% Calm Calm -- 29.75 in1007.5 mb - 0.00 in0.0 mm 0.13 in3.3 mm
01:30 PM 54.3°F12.4°C 52.3°F11.3°C 93% Calm Calm -- 29.75 in1007.5 mb - 0.00 in0.0 mm 0.13 in3.3 mm
01:15 PM 54.1°F12.3°C 52.2°F11.2°C 93% Calm Calm -- 29.75 in1007.5 mb - 0.00 in0.0 mm 0.13 in3.3 mm
01:00 PM 54.0°F12.2°C 52.0°F11.1°C 93% Calm Calm -- 29.75 in1007.5 mb - 0.01 in0.3 mm 0.13 in3.3 mm
12:45 PM 54.0°F12.2°C 51.7°F10.9°C 92% Calm Calm -- 29.76 in1007.8 mb - 0.01 in0.3 mm 0.13 in3.3 mm
12:30 PM 54.0°F12.2°C 52.0°F11.1°C 93% Calm Calm -- 29.77 in1008.1 mb - 0.01 in0.3 mm 0.13 in3.3 mm
12:15 PM 53.8°F12.1°C 51.8°F11.0°C 93% Calm Calm -- 29.77 in1008.1 mb - 0.01 in0.3 mm 0.13 in3.3 mm
12:00 PM 53.4°F11.9°C 50.9°F10.5°C 91% Calm Calm -- 29.77 in1008.1 mb - 0.01 in0.3 mm 0.12 in3.0 mm
11:45 AM 53.4°F11.9°C 51.4°F10.8°C 93% Calm Calm -- 29.78 in1008.5 mb - 0.01 in0.3 mm 0.12 in3.0 mm
11:30 AM 53.2°F11.8°C 51.3°F10.7°C 93% Calm Calm -- 29.77 in1008.1 mb - 0.01 in0.3 mm 0.12 in3.0 mm
11:15 AM 53.1°F11.7°C 51.1°F10.6°C 93% Calm Calm -- 29.80 in1009.1 mb - 0.02 in0.5 mm 0.12 in3.0 mm
11:00 AM 52.5°F11.4°C 50.6°F10.3°C 93% Calm Calm -- 29.80 in1009.1 mb - 0.04 in1.0 mm 0.11 in2.8 mm
10:45 AM 52.1°F11.2°C 50.2°F10.1°C 93% Calm Calm -- 29.80 in1009.1 mb - 0.05 in1.3 mm 0.11 in2.8 mm
10:30 AM 51.6°F10.9°C 49.6°F9.8°C 93% Calm Calm -- 29.80 in1009.1 mb - 0.05 in1.3 mm 0.11 in2.8 mm
10:15 AM 51.3°F10.7°C 49.3°F9.6°C 93% Calm Calm -- 29.80 in1009.1 mb - 0.04 in1.0 mm 0.10 in2.5 mm
10:00 AM 51.0°F10.6°C 49.0°F9.4°C 93% Calm Calm -- 29.79 in1008.8 mb - 0.01 in0.3 mm 0.07 in1.8 mm
09:45 AM 50.7°F10.4°C 48.8°F9.3°C 93% Calm Calm -- 29.79 in1008.8 mb - 0.00 in0.0 mm 0.06 in1.5 mm
09:30 AM 50.7°F10.4°C 48.8°F9.3°C 93% Calm Calm -- 29.77 in1008.1 mb - 0.00 in0.0 mm 0.06 in1.5 mm
09:15 AM 50.4°F10.2°C 48.4°F9.1°C 93% Calm Calm -- 29.78 in1008.5 mb - 0.00 in0.0 mm 0.06 in1.5 mm
09:00 AM 49.9°F9.9°C 48.0°F8.9°C 93% Calm Calm -- 29.79 in1008.8 mb - 0.00 in0.0 mm 0.06 in1.5 mm
08:45 AM 49.6°F9.8°C 47.7°F8.7°C 93% Calm Calm -- 29.80 in1009.1 mb - 0.02 in0.5 mm 0.06 in1.5 mm
08:30 AM 49.3°F9.6°C 47.1°F8.4°C 92% Calm Calm -- 29.80 in1009.1 mb - 0.03 in0.8 mm 0.06 in1.5 mm
08:15 AM 49.3°F9.6°C 47.1°F8.4°C 92% Calm Calm -- 29.80 in1009.1 mb - 0.04 in1.0 mm 0.06 in1.5 mm
08:00 AM 49.5°F9.7°C 47.2°F8.4°C 92% Calm Calm -- 29.80 in1009.1 mb - 0.05 in1.3 mm 0.06 in1.5 mm
07:45 AM 49.5°F9.7°C 47.2°F8.4°C 92% Calm Calm -- 29.81 in1009.5 mb - 0.04 in1.0 mm 0.04 in1.0 mm
07:30 AM 49.5°F9.7°C 46.9°F8.3°C 91% Calm Calm -- 29.80 in1009.1 mb - 0.03 in0.8 mm 0.03 in0.8 mm
07:15 AM 49.5°F9.7°C 46.9°F8.3°C 91% Calm Calm -- 29.82 in1009.8 mb - 0.02 in0.5 mm 0.02 in0.5 mm
07:00 AM 49.5°F9.7°C 46.4°F8.0°C 89% Calm Calm -- 29.82 in1009.8 mb - 0.01 in0.3 mm 0.01 in0.3 mm
06:45 AM 49.6°F9.8°C 45.9°F7.7°C 87% Calm Calm -- 29.82 in1009.8 mb - 0.00 in0.0 mm 0.00 in0.0 mm
06:30 AM 49.8°F9.9°C 45.5°F7.5°C 85% Calm Calm -- 29.81 in1009.5 mb - 0.00 in0.0 mm 0.00 in0.0 mm
06:15 AM 50.4°F10.2°C 45.4°F7.4°C 83% Calm Calm -- 29.81 in1009.5 mb - 0.00 in0.0 mm 0.00 in0.0 mm
06:00 AM 51.1°F10.6°C 45.1°F7.3°C 80% Calm Calm -- 29.81 in1009.5 mb - 0.00 in0.0 mm 0.00 in0.0 mm
05:45 AM 51.2°F10.7°C 43.6°F6.4°C 75% Calm Calm -- 29.82 in1009.8 mb - 0.00 in0.0 mm 0.00 in0.0 mm
05:30 AM 50.7°F10.4°C 43.8°F6.6°C 77% Calm Calm -- 29.83 in1010.2 mb - 0.00 in0.0 mm 0.00 in0.0 mm
05:15 AM 50.7°F10.4°C 44.8°F7.1°C 80% Calm Calm -- 29.83 in1010.2 mb - 0.00 in0.0 mm 0.00 in0.0 mm
05:00 AM 50.4°F10.2°C 44.4°F6.9°C 80% Calm Calm -- 29.84 in1010.5 mb - 0.00 in0.0 mm 0.00 in0.0 mm
04:45 AM 50.2°F10.1°C 44.6°F7.0°C 81% Calm Calm -- 29.85 in1010.8 mb - 0.00 in0.0 mm 0.00 in0.0 mm
04:30 AM 50.0°F10.0°C 44.7°F7.1°C 82% Calm Calm -- 29.86 in1011.2 mb - 0.00 in0.0 mm 0.00 in0.0 mm
04:15 AM 50.2°F10.1°C 45.2°F7.3°C 83% Calm Calm -- 29.86 in1011.2 mb - 0.00 in0.0 mm 0.00 in0.0 mm
04:00 AM 50.2°F10.1°C 44.6°F7.0°C 81% Calm Calm -- 29.87 in1011.5 mb - 0.00 in0.0 mm 0.00 in0.0 mm
03:45 AM 50.0°F10.0°C 45.0°F7.2°C 83% Calm Calm -- 29.87 in1011.5 mb - 0.00 in0.0 mm 0.00 in0.0 mm
03:30 AM 49.8°F9.9°C 45.2°F7.3°C 84% Calm Calm -- 29.89 in1012.2 mb - 0.00 in0.0 mm 0.00 in0.0 mm
03:15 AM 49.4°F9.7°C 46.6°F8.1°C 90% Calm Calm 1.2 mph1.9 kmh 29.90 in1012.5 mb - 0.00 in0.0 mm 0.00 in0.0 mm
03:00 AM 48.4°F9.1°C 46.5°F8.1°C 93% Calm Calm -- 29.91 in1012.9 mb - 0.00 in0.0 mm 0.00 in0.0 mm
02:45 AM 47.0°F8.3°C 45.1°F7.3°C 93% Calm Calm -- 29.91 in1012.9 mb - 0.00 in0.0 mm 0.00 in0.0 mm
02:30 AM 46.0°F7.8°C 44.1°F6.7°C 93% Calm Calm -- 29.90 in1012.5 mb - 0.00 in0.0 mm 0.00 in0.0 mm
02:15 AM 45.5°F7.5°C 43.6°F6.4°C 93% Calm Calm -- 29.90 in1012.5 mb - 0.00 in0.0 mm 0.00 in0.0 mm
02:00 AM 45.1°F7.3°C 43.2°F6.2°C 93% Calm Calm -- 29.90 in1012.5 mb - 0.00 in0.0 mm 0.00 in0.0 mm
01:45 AM 45.0°F7.2°C 42.8°F6.0°C 92% Calm Calm -- 29.90 in1012.5 mb - 0.00 in0.0 mm 0.00 in0.0 mm
01:30 AM 45.1°F7.3°C 42.6°F5.9°C 91% Calm Calm -- 29.90 in1012.5 mb - 0.00 in0.0 mm 0.00 in0.0 mm
01:15 AM 45.1°F7.3°C 43.0°F6.1°C 92% Calm Calm -- 29.90 in1012.5 mb - 0.00 in0.0 mm 0.00 in0.0 mm
01:00 AM 45.1°F7.3°C 42.7°F5.9°C 91% Calm Calm -- 29.90 in1012.5 mb - 0.00 in0.0 mm 0.00 in0.0 mm
12:45 AM 45.7°F7.6°C 43.2°F6.2°C 91% Calm Calm -- 29.89 in1012.2 mb - 0.00 in0.0 mm 0.00 in0.0 mm
12:30 AM 46.0°F7.8°C 43.3°F6.3°C 90% Calm Calm -- 29.90 in1012.5 mb - 0.00 in0.0 mm 0.00 in0.0 mm
12:15 AM 46.8°F8.2°C 43.7°F6.5°C 89% Calm Calm -- 29.90 in1012.5 mb - 0.00 in0.0 mm 0.00 in0.0 mm
12:00 AM 47.7°F8.7°C 44.6°F7.0°C 89% Calm Calm -- 29.91 in1012.9 mb - 0.00 in0.0 mm 0.00 in0.0 mm